sensor_id;sensor_type;location;lat;lon;timestamp;P1;durP1;ratioP1;P2;durP2;ratioP2
74707;SDS011;63360;50.104;8.074;2022-09-24T00:01:25;4.60;;;2.40;;
74707;SDS011;63360;50.104;8.074;2022-09-24T00:03:54;4.10;;;2.00;;
74707;SDS011;63360;50.104;8.074;2022-09-24T00:06:24;5.18;;;1.70;;
74707;SDS011;63360;50.104;8.074;2022-09-24T00:08:52;3.20;;;1.70;;
74707;SDS011;63360;50.104;8.074;2022-09-24T00:11:21;3.53;;;1.70;;
74707;SDS011;63360;50.104;8.074;2022-09-24T00:13:49;3.80;;;1.88;;
74707;SDS011;63360;50.104;8.074;2022-09-24T00:16:17;3.90;;;1.88;;
74707;SDS011;63360;50.104;8.074;2022-09-24T00:18:45;5.13;;;1.85;;
74707;SDS011;63360;50.104;8.074;2022-09-24T00:21:18;3.15;;;1.75;;
74707;SDS011;63360;50.104;8.074;2022-09-24T00:23:48;3.03;;;1.67;;
74707;SDS011;63360;50.104;8.074;2022-09-24T00:26:16;4.25;;;1.90;;
74707;SDS011;63360;50.104;8.074;2022-09-24T00:29:02;3.38;;;1.75;;
74707;SDS011;63360;50.104;8.074;2022-09-24T00:31:29;4.13;;;1.75;;
74707;SDS011;63360;50.104;8.074;2022-09-24T00:33:56;3.83;;;2.00;;
74707;SDS011;63360;50.104;8.074;2022-09-24T00:36:23;3.70;;;2.03;;
74707;SDS011;63360;50.104;8.074;2022-09-24T00:38:51;4.28;;;1.90;;
74707;SDS011;63360;50.104;8.074;2022-09-24T00:41:19;4.40;;;2.00;;
74707;SDS011;63360;50.104;8.074;2022-09-24T00:43:48;5.18;;;2.05;;
74707;SDS011;63360;50.104;8.074;2022-09-24T00:46:20;5.85;;;2.00;;
74707;SDS011;63360;50.104;8.074;2022-09-24T00:48:49;3.60;;;1.97;;
74707;SDS011;63360;50.104;8.074;2022-09-24T00:51:20;4.00;;;1.83;;
74707;SDS011;63360;50.104;8.074;2022-09-24T00:53:49;4.45;;;2.40;;
74707;SDS011;63360;50.104;8.074;2022-09-24T00:56:18;4.35;;;2.10;;
74707;SDS011;63360;50.104;8.074;2022-09-24T00:58:48;3.80;;;2.03;;
74707;SDS011;63360;50.104;8.074;2022-09-24T01:01:18;4.27;;;2.17;;
74707;SDS011;63360;50.104;8.074;2022-09-24T01:03:47;3.55;;;1.98;;
74707;SDS011;63360;50.104;8.074;2022-09-24T01:06:15;3.25;;;1.63;;
74707;SDS011;63360;50.104;8.074;2022-09-24T01:08:42;5.38;;;2.35;;
74707;SDS011;63360;50.104;8.074;2022-09-24T01:11:15;5.13;;;2.70;;
74707;SDS011;63360;50.104;8.074;2022-09-24T01:31:28;4.30;;;1.80;;
74707;SDS011;63360;50.104;8.074;2022-09-24T01:33:57;3.50;;;2.08;;
74707;SDS011;63360;50.104;8.074;2022-09-24T01:36:27;3.60;;;2.25;;
74707;SDS011;63360;50.104;8.074;2022-09-24T01:38:56;4.07;;;1.90;;
74707;SDS011;63360;50.104;8.074;2022-09-24T01:41:23;4.63;;;2.17;;
74707;SDS011;63360;50.104;8.074;2022-09-24T01:43:50;4.55;;;2.10;;
74707;SDS011;63360;50.104;8.074;2022-09-24T01:46:17;3.70;;;1.98;;
74707;SDS011;63360;50.104;8.074;2022-09-24T01:48:45;3.42;;;1.85;;
74707;SDS011;63360;50.104;8.074;2022-09-24T01:53:56;3.43;;;1.80;;
74707;SDS011;63360;50.104;8.074;2022-09-24T01:59:10;3.10;;;1.63;;
74707;SDS011;63360;50.104;8.074;2022-09-24T02:04:42;2.90;;;1.73;;
74707;SDS011;63360;50.104;8.074;2022-09-24T02:07:13;6.10;;;2.00;;
74707;SDS011;63360;50.104;8.074;2022-09-24T02:09:44;3.60;;;2.08;;
74707;SDS011;63360;50.104;8.074;2022-09-24T02:12:13;4.88;;;1.90;;
74707;SDS011;63360;50.104;8.074;2022-09-24T02:14:45;2.80;;;1.83;;
74707;SDS011;63360;50.104;8.074;2022-09-24T02:17:16;7.03;;;2.20;;
74707;SDS011;63360;50.104;8.074;2022-09-24T02:19:43;4.07;;;2.00;;
74707;SDS011;63360;50.104;8.074;2022-09-24T02:22:11;3.85;;;1.80;;
74707;SDS011;63360;50.104;8.074;2022-09-24T02:24:42;3.42;;;1.90;;
74707;SDS011;63360;50.104;8.074;2022-09-24T02:27:14;5.15;;;1.90;;
74707;SDS011;63360;50.104;8.074;2022-09-24T02:29:41;3.92;;;2.10;;
74707;SDS011;63360;50.104;8.074;2022-09-24T02:32:08;3.40;;;1.80;;
74707;SDS011;63360;50.104;8.074;2022-09-24T02:34:39;4.00;;;1.83;;
74707;SDS011;63360;50.104;8.074;2022-09-24T02:37:12;3.47;;;1.80;;
74707;SDS011;63360;50.104;8.074;2022-09-24T02:39:40;3.47;;;1.80;;
74707;SDS011;63360;50.104;8.074;2022-09-24T02:42:07;4.03;;;2.10;;
74707;SDS011;63360;50.104;8.074;2022-09-24T02:44:35;3.73;;;2.10;;
74707;SDS011;63360;50.104;8.074;2022-09-24T02:47:02;3.35;;;1.85;;
74707;SDS011;63360;50.104;8.074;2022-09-24T02:49:29;3.40;;;2.10;;
74707;SDS011;63360;50.104;8.074;2022-09-24T02:51:55;4.18;;;1.90;;
74707;SDS011;63360;50.104;8.074;2022-09-24T02:54:22;4.78;;;2.10;;
74707;SDS011;63360;50.104;8.074;2022-09-24T02:56:50;4.23;;;2.50;;
74707;SDS011;63360;50.104;8.074;2022-09-24T02:59:17;4.85;;;2.15;;
74707;SDS011;63360;50.104;8.074;2022-09-24T03:01:44;3.33;;;1.88;;
74707;SDS011;63360;50.104;8.074;2022-09-24T03:04:11;5.90;;;2.17;;
74707;SDS011;63360;50.104;8.074;2022-09-24T03:06:38;4.22;;;2.03;;
74707;SDS011;63360;50.104;8.074;2022-09-24T03:09:04;2.93;;;1.60;;
74707;SDS011;63360;50.104;8.074;2022-09-24T03:11:31;3.70;;;2.13;;
74707;SDS011;63360;50.104;8.074;2022-09-24T03:13:58;5.32;;;2.00;;
74707;SDS011;63360;50.104;8.074;2022-09-24T03:16:25;4.72;;;2.03;;
74707;SDS011;63360;50.104;8.074;2022-09-24T03:18:52;4.70;;;2.38;;
74707;SDS011;63360;50.104;8.074;2022-09-24T03:21:19;3.33;;;1.80;;
74707;SDS011;63360;50.104;8.074;2022-09-24T03:23:46;4.88;;;1.92;;
74707;SDS011;63360;50.104;8.074;2022-09-24T03:26:13;3.70;;;2.00;;
74707;SDS011;63360;50.104;8.074;2022-09-24T03:28:40;4.20;;;2.13;;
74707;SDS011;63360;50.104;8.074;2022-09-24T03:31:06;4.25;;;2.00;;
74707;SDS011;63360;50.104;8.074;2022-09-24T03:33:52;4.43;;;2.10;;
74707;SDS011;63360;50.104;8.074;2022-09-24T03:36:19;3.92;;;2.00;;
74707;SDS011;63360;50.104;8.074;2022-09-24T03:38:48;3.88;;;2.22;;
74707;SDS011;63360;50.104;8.074;2022-09-24T03:41:17;4.53;;;2.13;;
74707;SDS011;63360;50.104;8.074;2022-09-24T03:43:43;4.95;;;2.20;;
74707;SDS011;63360;50.104;8.074;2022-09-24T03:46:10;3.73;;;2.03;;
74707;SDS011;63360;50.104;8.074;2022-09-24T03:48:38;4.18;;;2.25;;
74707;SDS011;63360;50.104;8.074;2022-09-24T03:51:10;3.72;;;2.13;;
74707;SDS011;63360;50.104;8.074;2022-09-24T03:53:37;4.03;;;2.30;;
74707;SDS011;63360;50.104;8.074;2022-09-24T03:56:05;4.43;;;2.40;;
74707;SDS011;63360;50.104;8.074;2022-09-24T03:58:32;5.63;;;2.60;;
74707;SDS011;63360;50.104;8.074;2022-09-24T04:01:01;4.68;;;2.33;;
74707;SDS011;63360;50.104;8.074;2022-09-24T04:03:27;4.97;;;2.42;;
74707;SDS011;63360;50.104;8.074;2022-09-24T04:05:54;5.57;;;2.40;;
74707;SDS011;63360;50.104;8.074;2022-09-24T04:08:21;6.05;;;2.60;;
74707;SDS011;63360;50.104;8.074;2022-09-24T04:10:48;3.93;;;2.10;;
74707;SDS011;63360;50.104;8.074;2022-09-24T04:13:16;4.97;;;2.13;;
74707;SDS011;63360;50.104;8.074;2022-09-24T04:15:43;9.55;;;2.30;;
74707;SDS011;63360;50.104;8.074;2022-09-24T04:18:10;4.10;;;2.40;;
74707;SDS011;63360;50.104;8.074;2022-09-24T04:20:37;5.65;;;2.50;;
74707;SDS011;63360;50.104;8.074;2022-09-24T04:23:03;4.57;;;2.80;;
74707;SDS011;63360;50.104;8.074;2022-09-24T04:25:30;9.52;;;2.75;;
74707;SDS011;63360;50.104;8.074;2022-09-24T04:27:58;5.72;;;2.90;;
74707;SDS011;63360;50.104;8.074;2022-09-24T04:30:26;5.15;;;2.60;;
74707;SDS011;63360;50.104;8.074;2022-09-24T04:32:55;5.00;;;2.40;;
74707;SDS011;63360;50.104;8.074;2022-09-24T04:35:25;3.73;;;2.30;;
74707;SDS011;63360;50.104;8.074;2022-09-24T04:37:53;6.63;;;2.25;;
74707;SDS011;63360;50.104;8.074;2022-09-24T04:40:20;5.68;;;2.50;;
74707;SDS011;63360;50.104;8.074;2022-09-24T04:42:46;6.20;;;2.42;;
74707;SDS011;63360;50.104;8.074;2022-09-24T04:45:13;7.60;;;2.40;;
74707;SDS011;63360;50.104;8.074;2022-09-24T04:47:47;5.53;;;2.20;;
74707;SDS011;63360;50.104;8.074;2022-09-24T04:50:21;4.93;;;2.50;;
74707;SDS011;63360;50.104;8.074;2022-09-24T04:52:48;7.68;;;2.30;;
74707;SDS011;63360;50.104;8.074;2022-09-24T04:55:14;4.97;;;2.67;;
74707;SDS011;63360;50.104;8.074;2022-09-24T04:57:41;4.72;;;2.72;;
74707;SDS011;63360;50.104;8.074;2022-09-24T05:00:08;4.83;;;2.50;;
74707;SDS011;63360;50.104;8.074;2022-09-24T05:02:40;3.78;;;2.10;;
74707;SDS011;63360;50.104;8.074;2022-09-24T05:05:07;4.85;;;2.90;;
74707;SDS011;63360;50.104;8.074;2022-09-24T05:07:36;5.05;;;3.00;;
74707;SDS011;63360;50.104;8.074;2022-09-24T05:10:03;4.78;;;2.45;;
74707;SDS011;63360;50.104;8.074;2022-09-24T05:12:29;4.63;;;2.67;;
74707;SDS011;63360;50.104;8.074;2022-09-24T05:14:56;5.15;;;2.60;;
74707;SDS011;63360;50.104;8.074;2022-09-24T05:17:22;5.55;;;2.38;;
74707;SDS011;63360;50.104;8.074;2022-09-24T05:19:49;5.00;;;2.50;;
74707;SDS011;63360;50.104;8.074;2022-09-24T05:22:15;4.63;;;2.53;;
74707;SDS011;63360;50.104;8.074;2022-09-24T05:24:42;6.90;;;3.20;;
74707;SDS011;63360;50.104;8.074;2022-09-24T05:27:08;7.13;;;2.42;;
74707;SDS011;63360;50.104;8.074;2022-09-24T05:29:41;5.15;;;2.83;;
74707;SDS011;63360;50.104;8.074;2022-09-24T05:32:09;5.07;;;2.60;;
74707;SDS011;63360;50.104;8.074;2022-09-24T05:34:37;5.25;;;2.30;;
74707;SDS011;63360;50.104;8.074;2022-09-24T05:37:04;5.00;;;2.80;;
74707;SDS011;63360;50.104;8.074;2022-09-24T05:39:30;6.97;;;3.55;;
74707;SDS011;63360;50.104;8.074;2022-09-24T05:41:59;9.07;;;5.30;;
74707;SDS011;63360;50.104;8.074;2022-09-24T05:44:27;7.28;;;3.80;;
74707;SDS011;63360;50.104;8.074;2022-09-24T05:46:54;6.63;;;3.15;;
74707;SDS011;63360;50.104;8.074;2022-09-24T05:49:21;7.47;;;3.60;;
74707;SDS011;63360;50.104;8.074;2022-09-24T05:51:47;7.15;;;3.50;;
74707;SDS011;63360;50.104;8.074;2022-09-24T05:54:15;6.30;;;2.92;;
74707;SDS011;63360;50.104;8.074;2022-09-24T05:56:42;6.00;;;2.80;;
74707;SDS011;63360;50.104;8.074;2022-09-24T05:59:09;6.15;;;3.00;;
74707;SDS011;63360;50.104;8.074;2022-09-24T06:01:36;7.10;;;3.10;;
74707;SDS011;63360;50.104;8.074;2022-09-24T06:04:03;6.40;;;3.15;;
74707;SDS011;63360;50.104;8.074;2022-09-24T06:06:34;8.40;;;3.20;;
74707;SDS011;63360;50.104;8.074;2022-09-24T06:09:01;6.05;;;3.00;;
74707;SDS011;63360;50.104;8.074;2022-09-24T06:11:29;8.55;;;3.08;;
74707;SDS011;63360;50.104;8.074;2022-09-24T06:14:05;6.10;;;3.07;;
74707;SDS011;63360;50.104;8.074;2022-09-24T06:16:32;4.65;;;3.17;;
74707;SDS011;63360;50.104;8.074;2022-09-24T06:18:59;8.25;;;3.17;;
74707;SDS011;63360;50.104;8.074;2022-09-24T06:21:26;9.38;;;5.00;;
74707;SDS011;63360;50.104;8.074;2022-09-24T06:23:52;10.30;;;6.05;;
74707;SDS011;63360;50.104;8.074;2022-09-24T06:26:19;9.93;;;6.17;;
74707;SDS011;63360;50.104;8.074;2022-09-24T06:28:45;10.93;;;5.90;;
74707;SDS011;63360;50.104;8.074;2022-09-24T06:31:12;11.05;;;5.45;;
74707;SDS011;63360;50.104;8.074;2022-09-24T06:33:38;11.02;;;6.10;;
74707;SDS011;63360;50.104;8.074;2022-09-24T06:36:06;9.32;;;5.85;;
74707;SDS011;63360;50.104;8.074;2022-09-24T06:38:32;9.13;;;5.30;;
74707;SDS011;63360;50.104;8.074;2022-09-24T06:41:00;10.98;;;5.88;;
74707;SDS011;63360;50.104;8.074;2022-09-24T06:43:29;8.32;;;5.57;;
74707;SDS011;63360;50.104;8.074;2022-09-24T06:45:56;12.55;;;6.97;;
74707;SDS011;63360;50.104;8.074;2022-09-24T06:48:24;22.70;;;15.32;;
74707;SDS011;63360;50.104;8.074;2022-09-24T06:50:51;38.93;;;26.37;;
74707;SDS011;63360;50.104;8.074;2022-09-24T06:53:18;29.70;;;21.80;;
74707;SDS011;63360;50.104;8.074;2022-09-24T06:55:45;27.13;;;19.35;;
74707;SDS011;63360;50.104;8.074;2022-09-24T06:58:16;22.55;;;15.32;;
74707;SDS011;63360;50.104;8.074;2022-09-24T07:00:51;18.55;;;13.50;;
74707;SDS011;63360;50.104;8.074;2022-09-24T07:03:24;18.90;;;12.07;;
74707;SDS011;63360;50.104;8.074;2022-09-24T07:05:52;14.85;;;9.88;;
74707;SDS011;63360;50.104;8.074;2022-09-24T07:08:19;16.10;;;10.10;;
74707;SDS011;63360;50.104;8.074;2022-09-24T07:10:46;15.00;;;9.43;;
74707;SDS011;63360;50.104;8.074;2022-09-24T07:13:14;13.35;;;7.63;;
74707;SDS011;63360;50.104;8.074;2022-09-24T07:15:41;17.50;;;9.40;;
74707;SDS011;63360;50.104;8.074;2022-09-24T07:18:09;14.50;;;9.23;;
74707;SDS011;63360;50.104;8.074;2022-09-24T07:20:36;13.77;;;9.07;;
74707;SDS011;63360;50.104;8.074;2022-09-24T07:23:03;13.30;;;8.25;;
74707;SDS011;63360;50.104;8.074;2022-09-24T07:25:30;13.00;;;8.85;;
74707;SDS011;63360;50.104;8.074;2022-09-24T07:28:07;14.37;;;9.17;;
74707;SDS011;63360;50.104;8.074;2022-09-24T07:30:35;15.10;;;9.70;;
74707;SDS011;63360;50.104;8.074;2022-09-24T07:33:02;13.32;;;8.90;;
74707;SDS011;63360;50.104;8.074;2022-09-24T07:35:29;14.43;;;9.75;;
74707;SDS011;63360;50.104;8.074;2022-09-24T07:37:57;15.05;;;10.23;;
74707;SDS011;63360;50.104;8.074;2022-09-24T07:40:31;19.50;;;10.30;;
74707;SDS011;63360;50.104;8.074;2022-09-24T07:42:58;12.70;;;8.38;;
74707;SDS011;63360;50.104;8.074;2022-09-24T07:45:26;12.02;;;8.15;;
74707;SDS011;63360;50.104;8.074;2022-09-24T07:48:01;12.70;;;7.20;;
74707;SDS011;63360;50.104;8.074;2022-09-24T07:50:30;11.55;;;7.00;;
74707;SDS011;63360;50.104;8.074;2022-09-24T07:52:59;6.97;;;4.43;;
74707;SDS011;63360;50.104;8.074;2022-09-24T07:55:26;6.57;;;4.35;;
74707;SDS011;63360;50.104;8.074;2022-09-24T07:57:53;9.10;;;4.70;;
74707;SDS011;63360;50.104;8.074;2022-09-24T08:00:20;7.35;;;4.05;;
74707;SDS011;63360;50.104;8.074;2022-09-24T08:02:48;8.68;;;4.38;;
74707;SDS011;63360;50.104;8.074;2022-09-24T08:05:16;7.20;;;4.80;;
74707;SDS011;63360;50.104;8.074;2022-09-24T08:07:50;7.72;;;4.63;;
74707;SDS011;63360;50.104;8.074;2022-09-24T08:10:20;7.00;;;3.78;;
74707;SDS011;63360;50.104;8.074;2022-09-24T08:12:48;6.85;;;3.75;;
74707;SDS011;63360;50.104;8.074;2022-09-24T08:15:14;5.78;;;3.42;;
74707;SDS011;63360;50.104;8.074;2022-09-24T08:17:41;7.63;;;4.40;;
74707;SDS011;63360;50.104;8.074;2022-09-24T08:20:08;7.50;;;4.20;;
74707;SDS011;63360;50.104;8.074;2022-09-24T08:22:34;8.85;;;3.50;;
74707;SDS011;63360;50.104;8.074;2022-09-24T08:25:01;5.93;;;3.30;;
74707;SDS011;63360;50.104;8.074;2022-09-24T08:27:29;6.43;;;3.47;;
74707;SDS011;63360;50.104;8.074;2022-09-24T08:29:58;8.27;;;3.97;;
74707;SDS011;63360;50.104;8.074;2022-09-24T08:32:25;6.88;;;3.40;;
74707;SDS011;63360;50.104;8.074;2022-09-24T08:34:52;9.02;;;3.10;;
74707;SDS011;63360;50.104;8.074;2022-09-24T08:37:18;5.72;;;2.63;;
74707;SDS011;63360;50.104;8.074;2022-09-24T08:39:45;6.55;;;2.90;;
74707;SDS011;63360;50.104;8.074;2022-09-24T08:42:13;4.47;;;2.50;;
74707;SDS011;63360;50.104;8.074;2022-09-24T08:44:50;5.82;;;2.88;;
74707;SDS011;63360;50.104;8.074;2022-09-24T08:47:37;5.03;;;2.80;;
74707;SDS011;63360;50.104;8.074;2022-09-24T08:52:48;6.68;;;3.53;;
74707;SDS011;63360;50.104;8.074;2022-09-24T09:01:20;4.85;;;3.28;;
74707;SDS011;63360;50.104;8.074;2022-09-24T09:04:02;6.43;;;3.25;;
74707;SDS011;63360;50.104;8.074;2022-09-24T09:09:36;9.63;;;3.63;;
74707;SDS011;63360;50.104;8.074;2022-09-24T09:12:14;9.13;;;4.00;;
74707;SDS011;63360;50.104;8.074;2022-09-24T09:17:21;7.05;;;3.22;;
74707;SDS011;63360;50.104;8.074;2022-09-24T09:19:55;6.20;;;3.58;;
74707;SDS011;63360;50.104;8.074;2022-09-24T09:22:36;10.53;;;3.60;;
74707;SDS011;63360;50.104;8.074;2022-09-24T09:25:18;9.18;;;3.55;;
74707;SDS011;63360;50.104;8.074;2022-09-24T09:27:50;10.52;;;4.07;;
74707;SDS011;63360;50.104;8.074;2022-09-24T09:30:23;5.88;;;3.70;;
74707;SDS011;63360;50.104;8.074;2022-09-24T09:33:04;8.80;;;4.22;;
74707;SDS011;63360;50.104;8.074;2022-09-24T09:35:54;6.90;;;3.73;;
74707;SDS011;63360;50.104;8.074;2022-09-24T09:41:16;7.10;;;4.28;;
74707;SDS011;63360;50.104;8.074;2022-09-24T09:43:58;5.72;;;3.47;;
74707;SDS011;63360;50.104;8.074;2022-09-24T09:46:33;7.25;;;3.13;;
74707;SDS011;63360;50.104;8.074;2022-09-24T09:49:06;6.13;;;3.80;;
74707;SDS011;63360;50.104;8.074;2022-09-24T09:51:35;7.03;;;4.53;;
74707;SDS011;63360;50.104;8.074;2022-09-24T09:54:05;7.55;;;4.50;;
74707;SDS011;63360;50.104;8.074;2022-09-24T09:56:33;7.93;;;4.47;;
74707;SDS011;63360;50.104;8.074;2022-09-24T10:01:39;6.83;;;4.03;;
74707;SDS011;63360;50.104;8.074;2022-09-24T10:04:26;7.20;;;3.70;;
74707;SDS011;63360;50.104;8.074;2022-09-24T10:07:06;6.80;;;3.58;;
74707;SDS011;63360;50.104;8.074;2022-09-24T10:09:33;5.72;;;3.08;;
74707;SDS011;63360;50.104;8.074;2022-09-24T10:14:41;8.93;;;3.90;;
74707;SDS011;63360;50.104;8.074;2022-09-24T10:17:11;7.50;;;3.50;;
74707;SDS011;63360;50.104;8.074;2022-09-24T10:19:41;7.53;;;3.60;;
74707;SDS011;63360;50.104;8.074;2022-09-24T10:22:18;7.53;;;3.92;;
74707;SDS011;63360;50.104;8.074;2022-09-24T10:24:48;6.55;;;3.63;;
74707;SDS011;63360;50.104;8.074;2022-09-24T10:27:20;7.90;;;3.40;;
74707;SDS011;63360;50.104;8.074;2022-09-24T10:29:54;8.18;;;3.70;;
74707;SDS011;63360;50.104;8.074;2022-09-24T10:32:40;5.05;;;2.80;;
74707;SDS011;63360;50.104;8.074;2022-09-24T10:35:26;8.60;;;3.47;;
74707;SDS011;63360;50.104;8.074;2022-09-24T10:37:56;8.00;;;3.80;;
74707;SDS011;63360;50.104;8.074;2022-09-24T10:40:28;7.57;;;3.77;;
74707;SDS011;63360;50.104;8.074;2022-09-24T10:42:58;5.40;;;3.63;;
74707;SDS011;63360;50.104;8.074;2022-09-24T10:48:26;6.90;;;3.50;;
74707;SDS011;63360;50.104;8.074;2022-09-24T10:54:20;5.43;;;3.80;;
74707;SDS011;63360;50.104;8.074;2022-09-24T10:56:40;5.40;;;3.35;;
74707;SDS011;63360;50.104;8.074;2022-09-24T10:59:21;12.82;;;3.67;;
74707;SDS011;63360;50.104;8.074;2022-09-24T11:04:54;7.15;;;3.80;;
74707;SDS011;63360;50.104;8.074;2022-09-24T11:21:54;5.33;;;3.07;;
74707;SDS011;63360;50.104;8.074;2022-09-24T11:24:48;5.07;;;2.67;;
74707;SDS011;63360;50.104;8.074;2022-09-24T11:30:43;6.22;;;3.28;;
74707;SDS011;63360;50.104;8.074;2022-09-24T11:33:24;7.15;;;3.00;;
74707;SDS011;63360;50.104;8.074;2022-09-24T11:55:24;5.90;;;2.83;;
74707;SDS011;63360;50.104;8.074;2022-09-24T12:00:41;6.50;;;4.07;;
74707;SDS011;63360;50.104;8.074;2022-09-24T12:03:17;5.93;;;3.50;;
74707;SDS011;63360;50.104;8.074;2022-09-24T12:06:12;6.45;;;3.67;;
74707;SDS011;63360;50.104;8.074;2022-09-24T12:08:49;5.47;;;3.30;;
74707;SDS011;63360;50.104;8.074;2022-09-24T12:11:31;8.38;;;3.10;;
74707;SDS011;63360;50.104;8.074;2022-09-24T12:14:04;5.93;;;3.25;;
74707;SDS011;63360;50.104;8.074;2022-09-24T12:16:38;4.40;;;2.57;;
74707;SDS011;63360;50.104;8.074;2022-09-24T12:19:26;6.18;;;2.60;;
74707;SDS011;63360;50.104;8.074;2022-09-24T12:21:57;4.80;;;2.50;;
74707;SDS011;63360;50.104;8.074;2022-09-24T12:27:06;4.57;;;2.72;;
74707;SDS011;63360;50.104;8.074;2022-09-24T12:29:50;6.97;;;3.60;;
74707;SDS011;63360;50.104;8.074;2022-09-24T12:38:44;6.13;;;3.00;;
74707;SDS011;63360;50.104;8.074;2022-09-24T12:47:10;6.85;;;3.70;;
74707;SDS011;63360;50.104;8.074;2022-09-24T12:49:29;8.57;;;4.70;;
74707;SDS011;63360;50.104;8.074;2022-09-24T12:52:00;7.80;;;4.30;;
74707;SDS011;63360;50.104;8.074;2022-09-24T12:57:13;6.97;;;3.87;;
74707;SDS011;63360;50.104;8.074;2022-09-24T12:59:56;7.70;;;3.60;;
74707;SDS011;63360;50.104;8.074;2022-09-24T13:02:29;7.47;;;4.30;;
74707;SDS011;63360;50.104;8.074;2022-09-24T13:07:42;8.35;;;4.88;;
74707;SDS011;63360;50.104;8.074;2022-09-24T13:12:58;9.90;;;5.82;;
74707;SDS011;63360;50.104;8.074;2022-09-24T13:20:43;8.00;;;4.40;;
74707;SDS011;63360;50.104;8.074;2022-09-24T13:25:54;7.18;;;4.88;;
74707;SDS011;63360;50.104;8.074;2022-09-24T13:28:24;9.68;;;5.45;;
74707;SDS011;63360;50.104;8.074;2022-09-24T13:31:13;10.38;;;5.13;;
74707;SDS011;63360;50.104;8.074;2022-09-24T13:33:52;9.43;;;4.90;;
74707;SDS011;63360;50.104;8.074;2022-09-24T13:36:31;7.80;;;4.90;;
74707;SDS011;63360;50.104;8.074;2022-09-24T13:41:52;7.15;;;4.20;;
74707;SDS011;63360;50.104;8.074;2022-09-24T13:47:14;9.65;;;6.75;;
74707;SDS011;63360;50.104;8.074;2022-09-24T13:50:06;10.63;;;7.07;;
74707;SDS011;63360;50.104;8.074;2022-09-24T13:55:23;10.63;;;6.45;;
74707;SDS011;63360;50.104;8.074;2022-09-24T13:57:56;10.32;;;7.18;;
74707;SDS011;63360;50.104;8.074;2022-09-24T14:00:24;11.05;;;6.45;;
74707;SDS011;63360;50.104;8.074;2022-09-24T14:03:03;10.40;;;7.50;;
74707;SDS011;63360;50.104;8.074;2022-09-24T14:05:42;9.80;;;6.03;;
74707;SDS011;63360;50.104;8.074;2022-09-24T14:08:12;11.23;;;7.60;;
74707;SDS011;63360;50.104;8.074;2022-09-24T14:10:41;14.30;;;9.50;;
74707;SDS011;63360;50.104;8.074;2022-09-24T14:13:15;12.20;;;8.13;;
74707;SDS011;63360;50.104;8.074;2022-09-24T14:18:27;9.85;;;6.45;;
74707;SDS011;63360;50.104;8.074;2022-09-24T14:20:55;10.60;;;6.80;;
74707;SDS011;63360;50.104;8.074;2022-09-24T14:23:31;10.32;;;5.88;;
74707;SDS011;63360;50.104;8.074;2022-09-24T14:26:04;9.88;;;6.32;;
74707;SDS011;63360;50.104;8.074;2022-09-24T14:28:32;10.30;;;5.17;;
74707;SDS011;63360;50.104;8.074;2022-09-24T14:30:59;10.32;;;6.18;;
74707;SDS011;63360;50.104;8.074;2022-09-24T14:33:28;9.85;;;5.70;;
74707;SDS011;63360;50.104;8.074;2022-09-24T14:35:58;10.07;;;5.88;;
74707;SDS011;63360;50.104;8.074;2022-09-24T14:38:27;9.85;;;6.22;;
74707;SDS011;63360;50.104;8.074;2022-09-24T14:41:01;10.23;;;6.60;;
74707;SDS011;63360;50.104;8.074;2022-09-24T14:43:41;9.35;;;6.30;;
74707;SDS011;63360;50.104;8.074;2022-09-24T14:49:03;7.82;;;5.10;;
74707;SDS011;63360;50.104;8.074;2022-09-24T14:51:31;7.97;;;5.75;;
74707;SDS011;63360;50.104;8.074;2022-09-24T14:53:59;9.17;;;6.03;;
74707;SDS011;63360;50.104;8.074;2022-09-24T14:56:31;10.93;;;6.28;;
74707;SDS011;63360;50.104;8.074;2022-09-24T14:58:58;9.07;;;6.30;;
74707;SDS011;63360;50.104;8.074;2022-09-24T15:01:30;10.13;;;6.47;;
74707;SDS011;63360;50.104;8.074;2022-09-24T15:03:59;8.27;;;5.47;;
74707;SDS011;63360;50.104;8.074;2022-09-24T15:06:34;9.00;;;5.67;;
74707;SDS011;63360;50.104;8.074;2022-09-24T15:09:05;9.95;;;5.68;;
74707;SDS011;63360;50.104;8.074;2022-09-24T15:11:50;11.13;;;6.00;;
74707;SDS011;63360;50.104;8.074;2022-09-24T15:14:21;8.25;;;6.20;;
74707;SDS011;63360;50.104;8.074;2022-09-24T15:16:53;10.80;;;6.93;;
74707;SDS011;63360;50.104;8.074;2022-09-24T15:19:21;13.53;;;7.20;;
74707;SDS011;63360;50.104;8.074;2022-09-24T15:21:50;12.35;;;7.35;;
74707;SDS011;63360;50.104;8.074;2022-09-24T15:24:18;13.75;;;8.13;;
74707;SDS011;63360;50.104;8.074;2022-09-24T15:26:46;12.23;;;7.97;;
74707;SDS011;63360;50.104;8.074;2022-09-24T15:29:33;13.05;;;7.50;;
74707;SDS011;63360;50.104;8.074;2022-09-24T15:31:59;12.73;;;6.83;;
74707;SDS011;63360;50.104;8.074;2022-09-24T15:34:26;12.20;;;7.60;;
74707;SDS011;63360;50.104;8.074;2022-09-24T15:36:54;9.63;;;5.18;;
74707;SDS011;63360;50.104;8.074;2022-09-24T15:39:24;9.23;;;5.30;;
74707;SDS011;63360;50.104;8.074;2022-09-24T15:41:52;10.55;;;5.65;;
74707;SDS011;63360;50.104;8.074;2022-09-24T15:44:22;11.03;;;6.67;;
74707;SDS011;63360;50.104;8.074;2022-09-24T15:46:55;7.55;;;5.13;;
74707;SDS011;63360;50.104;8.074;2022-09-24T15:49:21;10.85;;;5.90;;
74707;SDS011;63360;50.104;8.074;2022-09-24T15:51:49;10.93;;;5.45;;
74707;SDS011;63360;50.104;8.074;2022-09-24T15:54:25;9.77;;;5.38;;
74707;SDS011;63360;50.104;8.074;2022-09-24T15:56:51;8.90;;;5.27;;
74707;SDS011;63360;50.104;8.074;2022-09-24T15:59:18;10.38;;;5.97;;
74707;SDS011;63360;50.104;8.074;2022-09-24T16:01:46;8.52;;;5.35;;
74707;SDS011;63360;50.104;8.074;2022-09-24T16:04:19;7.72;;;5.10;;
74707;SDS011;63360;50.104;8.074;2022-09-24T16:06:45;7.90;;;5.13;;
74707;SDS011;63360;50.104;8.074;2022-09-24T16:09:12;8.07;;;5.67;;
74707;SDS011;63360;50.104;8.074;2022-09-24T16:11:38;7.97;;;5.50;;
74707;SDS011;63360;50.104;8.074;2022-09-24T16:14:04;9.18;;;6.22;;
74707;SDS011;63360;50.104;8.074;2022-09-24T16:16:32;11.70;;;6.53;;
74707;SDS011;63360;50.104;8.074;2022-09-24T16:18:58;11.10;;;7.10;;
74707;SDS011;63360;50.104;8.074;2022-09-24T16:21:25;10.03;;;6.33;;
74707;SDS011;63360;50.104;8.074;2022-09-24T16:23:55;9.55;;;6.20;;
74707;SDS011;63360;50.104;8.074;2022-09-24T16:26:22;10.80;;;6.93;;
74707;SDS011;63360;50.104;8.074;2022-09-24T16:28:49;13.73;;;8.30;;
74707;SDS011;63360;50.104;8.074;2022-09-24T16:31:17;13.07;;;9.65;;
74707;SDS011;63360;50.104;8.074;2022-09-24T16:33:44;13.23;;;9.33;;
74707;SDS011;63360;50.104;8.074;2022-09-24T16:36:11;22.10;;;11.55;;
74707;SDS011;63360;50.104;8.074;2022-09-24T16:38:37;12.73;;;9.50;;
74707;SDS011;63360;50.104;8.074;2022-09-24T16:41:04;14.50;;;8.23;;
74707;SDS011;63360;50.104;8.074;2022-09-24T16:43:32;12.43;;;7.72;;
74707;SDS011;63360;50.104;8.074;2022-09-24T16:46:02;12.83;;;7.70;;
74707;SDS011;63360;50.104;8.074;2022-09-24T16:48:30;17.33;;;8.35;;
74707;SDS011;63360;50.104;8.074;2022-09-24T16:51:15;14.32;;;8.18;;
74707;SDS011;63360;50.104;8.074;2022-09-24T16:53:42;15.32;;;9.25;;
74707;SDS011;63360;50.104;8.074;2022-09-24T16:56:14;19.98;;;10.50;;
74707;SDS011;63360;50.104;8.074;2022-09-24T16:58:42;17.30;;;10.30;;
74707;SDS011;63360;50.104;8.074;2022-09-24T17:01:11;19.70;;;10.75;;
74707;SDS011;63360;50.104;8.074;2022-09-24T17:03:39;21.55;;;10.50;;
74707;SDS011;63360;50.104;8.074;2022-09-24T17:06:06;17.00;;;10.27;;
74707;SDS011;63360;50.104;8.074;2022-09-24T17:08:34;28.13;;;11.48;;
74707;SDS011;63360;50.104;8.074;2022-09-24T17:11:20;15.30;;;9.80;;
74707;SDS011;63360;50.104;8.074;2022-09-24T17:13:47;14.45;;;9.48;;
74707;SDS011;63360;50.104;8.074;2022-09-24T17:16:14;17.65;;;10.32;;
74707;SDS011;63360;50.104;8.074;2022-09-24T17:18:41;14.13;;;9.00;;
74707;SDS011;63360;50.104;8.074;2022-09-24T17:21:08;18.25;;;11.50;;
74707;SDS011;63360;50.104;8.074;2022-09-24T17:23:36;21.30;;;12.17;;